METAR stanice u blizini

 

LYBE - Beograd / Surčin, Srbija
Ažurirano: 03/07/2022 08:00
Vedro
Vedro
 Pravac vetra Z
Vetar: Z 11 km/h
Temperatura: 23°C
Tačka rose: 18°C
Vlažnost: 74%
Pritisak: 1019 hPa
Pregled: Vedro
Vidljivost: greater than 10 km
2022/07/03 06:00 LYBE 030600Z 27006KT CAVOK 23/18 Q1019 NOSIG
LYBT - Beograd / Batajnica, Srbija
Ažurirano: 03/07/2022 08:00
Vedro
Vedro
 Pravac vetra JZ
Vetar: JZ 7 km/h
Temperatura: 23°C
Tačka rose: 21°C
Vlažnost: 89%
Pritisak: 1018 hPa
Pregled: Vedro
Vidljivost: greater than 10 km
2022/07/03 06:00 LYBT 030600Z 23004KT 200V260 CAVOK 23/21 Q1018 NOSIG
LYVR - Vršac, Srbija
Ažurirano: 03/07/2022 08:00
Vedro
Vedro
 Pravac vetra J
Vetar: J 11 km/h
Temperatura: 25°C
Tačka rose: 18°C
Vlažnost: 65%
Pritisak: 1018 hPa
Pregled: Vedro
Vidljivost: greater than 10 km
2022/07/03 06:00 LYVR 030600Z AUTO 18006KT 150V240 CAVOK 25/18 Q1018
 
LYKV - Lađevci, Srbija
Ažurirano: 03/07/2022 08:00
Vedro
Vedro
 Pravac vetra varies
Vetar: varies 2 km/h
Temperatura: 23°C
Tačka rose: 19°C
Vlažnost: 78%
Pritisak: 1019 hPa
Pregled: Vedro
Vidljivost: greater than 10 km
2022/07/03 06:00 LYKV 030600Z VRB01KT CAVOK 23/19 Q1019 NOSIG
LYNI - Niš, Srbija
Ažurirano: 03/07/2022 08:00
Vedro
Vedro
 Pravac vetra varies
Vetar: varies 2 km/h
Temperatura: 23°C
Tačka rose: 17°C
Vlažnost: 69%
Pritisak: 1019 hPa
Pregled: Vedro
Vidljivost: greater than 10 km
2022/07/03 06:00 LYNI 030600Z VRB01KT CAVOK 23/17 Q1019 NOSIG
BKPR - Priština, Srbija
Ažurirano: 03/07/2022 08:30
Vedro
Vedro
 Pravac vetra varies
Vetar: varies 2 km/h
Temperatura: 23°C
Tačka rose: 17°C
Vlažnost: 69%
Pritisak: 1021 hPa
Pregled: Vedro
Vidljivost: greater than 10 km
2022/07/03 06:30 BKPR 030630Z VRB01KT CAVOK 23/17 Q1021 NOSIG
 
LHPP - Pecs / Pogany, Hungary
Ažurirano: 03/07/2022 07:45
Vedro
Vedro
 Pravac vetra SI
Vetar: SI 6 km/h
Temperatura: 23°C
Tačka rose: 14°C
Vlažnost: 57%
Pritisak: 1019 hPa
Pregled: Vedro
Vidljivost: greater than 10 km
2022/07/03 05:45 LHPP 030545Z AUTO 05003KT 020V110 CAVOK 23/14 Q1019
LHUD - Szeged, Hungary
Ažurirano: 04/07/2019 01:45
NOT Current
Vedro
Vedro
 Pravac vetra S
Vetar: S 7 km/h
Temperatura: 18°C
Tačka rose: 13°C
Vlažnost: 73%
Pritisak: 1019 hPa
Pregled: Vedro
Vidljivost: greater than 10 km
2019/07/03 23:45 LHUD 032345Z 35004KT CAVOK 18/13 Q1019
LRTR - Timisoara, Romania
Ažurirano: 03/07/2022 08:00
Vedro
Vedro
 Pravac vetra JJI
Vetar: JJI 11 km/h
Temperatura: 25°C
Tačka rose: 19°C
Vlažnost: 69%
Pritisak: 1018 hPa
Pregled: Vedro
Vidljivost: greater than 10 km
2022/07/03 06:00 LRTR 030600Z 16006KT CAVOK 25/19 Q1018
 
LRCV - Craiova, Romania
Ažurirano: 03/07/2022 08:00
Vedro
Vedro
 Pravac vetra varies
Vetar: varies 4 km/h
Temperatura: 25°C
Tačka rose: 18°C
Vlažnost: 65%
Pritisak: 1018 hPa
Pregled: Vedro
Vidljivost: greater than 10 km
2022/07/03 06:00 LRCV 030600Z VRB02KT CAVOK 25/18 Q1018
LBSF - Sofia, Bulgaria
Ažurirano: 03/07/2022 08:00
Vedro
Vedro
 Pravac vetra varies
Vetar: varies 4 km/h
Temperatura: 21°C
Tačka rose: 16°C
Vlažnost: 73%
Pritisak: 1021 hPa
Pregled: Vedro
Vidljivost: greater than 10 km
2022/07/03 06:00 LBSF 030600Z VRB02KT CAVOK 21/16 Q1021 NOSIG
LWSK - Skoplje, Makedonija
Ažurirano: 03/07/2022 08:30
Vedro
Vedro
 Pravac vetra varies
Vetar: varies 2 km/h
Temperatura: 26°C
Tačka rose: 18°C
Vlažnost: 61%
Pritisak: 1019 hPa
Pregled: Vedro
Vidljivost: greater than 10 km
2022/07/03 06:30 LWSK 030630Z VRB01KT CAVOK 26/18 Q1019 NOSIG
 
LYPG - Podgorica, Crna Gora
Ažurirano: 03/07/2022 08:00
Vedro
Vedro
 Pravac vetra S
Vetar: S 13 km/h
Temperatura: 29°C
Heat Index: 28°C
Tačka rose: 14°C
Vlažnost: 40%
Pritisak: 1016 hPa
Pregled: Vedro
Vidljivost: greater than 10 km
2022/07/03 06:00 LYPG 030600Z 35007KT 330V080 CAVOK 29/14 Q1016 NOSIG
LQSA - Sarajevo, Bosna i Hercegovina
Ažurirano: 03/07/2022 08:00
Vedro
Vedro
 Pravac vetra varies
Vetar: varies 2 km/h
Temperatura: 20°C
Tačka rose: 16°C
Vlažnost: 78%
Pritisak: 1020 hPa
Pregled: Vedro
Vidljivost: greater than 10 km
2022/07/03 06:00 LQSA 030600Z VRB01KT CAVOK 20/16 Q1020 NOSIG
LDOS - Osijek, Hrvatksa
Ažurirano: 03/07/2022 08:00
Vedro
Vedro
 Pravac vetra S
Vetar: S 7 km/h
Temperatura: 22°C
Tačka rose: 16°C
Vlažnost: 69%
Pritisak: 1018 hPa
Pregled: Vedro
Vidljivost: greater than 10 km
2022/07/03 06:00 LDOS 030600Z 01004KT CAVOK 22/16 Q1018